createdAt,value
2018-04-04T00:01:31.897Z,77.41
2018-04-04T00:04:02.710Z,78.06
2018-04-04T00:06:33.449Z,78.75
2018-04-04T00:09:04.214Z,79.50
2018-04-04T00:11:34.949Z,80.04
2018-04-04T00:14:05.717Z,80.62
2018-04-04T00:16:36.452Z,81.18
2018-04-04T00:19:07.232Z,81.96
2018-04-04T00:21:37.964Z,82.18
2018-04-04T00:24:08.778Z,82.42
2018-04-04T00:26:39.520Z,82.27
2018-04-04T00:29:10.296Z,82.01
2018-04-04T00:31:41.040Z,82.39
2018-04-04T00:34:11.805Z,82.94
2018-04-04T00:36:42.550Z,83.12
2018-04-04T00:39:13.316Z,84.03
2018-04-04T00:41:44.058Z,84.19
2018-04-04T00:44:14.817Z,83.77
2018-04-04T00:46:45.561Z,83.27
2018-04-04T00:49:16.326Z,83.63
2018-04-04T00:51:47.119Z,83.78
2018-04-04T00:54:17.873Z,83.04
2018-04-04T00:56:48.620Z,83.30
2018-04-04T00:59:19.381Z,82.86
2018-04-04T01:01:50.120Z,82.59
2018-04-04T01:04:20.877Z,82.12
2018-04-04T01:06:51.609Z,82.26
2018-04-04T01:09:22.376Z,82.33
2018-04-04T01:11:53.112Z,82.18
2018-04-04T01:14:23.885Z,81.88
2018-04-04T01:16:54.650Z,81.87
2018-04-04T01:19:25.400Z,81.87
2018-04-04T01:21:56.205Z,82.05
2018-04-04T01:24:26.972Z,82.09
2018-04-04T01:26:57.696Z,82.13
2018-04-04T01:29:28.456Z,82.52
2018-04-04T01:31:59.200Z,82.50
2018-04-04T01:34:29.965Z,82.06
2018-04-04T01:37:00.704Z,82.29
2018-04-04T01:39:31.467Z,82.66
2018-04-04T01:42:02.204Z,82.64
2018-04-04T01:44:32.980Z,83.17
2018-04-04T01:47:03.729Z,82.60
2018-04-04T01:49:34.496Z,82.50
2018-04-04T01:52:05.239Z,82.30
2018-04-04T01:54:36.010Z,82.29
2018-04-04T01:57:06.775Z,82.38
2018-04-04T01:59:37.540Z,82.85
2018-04-04T02:02:08.373Z,82.95
2018-04-04T02:04:39.120Z,83.09
2018-04-04T02:07:09.857Z,83.27
2018-04-04T02:09:40.616Z,82.98
2018-04-04T02:12:11.364Z,82.93
2018-04-04T02:14:42.108Z,82.65
2018-04-04T02:17:12.866Z,82.25
2018-04-04T02:19:43.625Z,82.37
2018-04-04T02:22:14.365Z,82.65
2018-04-04T02:24:45.141Z,82.20
2018-04-04T02:27:15.929Z,82.21
2018-04-04T02:29:46.696Z,82.59
2018-04-04T02:32:17.458Z,82.98
2018-04-04T02:34:48.205Z,82.83
2018-04-04T02:37:18.947Z,82.57
2018-04-04T02:39:49.721Z,82.39
2018-04-04T02:42:21.553Z,81.12
2018-04-04T02:44:52.329Z,80.73
2018-04-04T02:47:23.065Z,80.98
2018-04-04T02:49:53.830Z,80.87
2018-04-04T02:52:24.565Z,80.88
2018-04-04T02:54:55.348Z,81.46
2018-04-04T02:57:26.089Z,81.99
2018-04-04T02:59:56.904Z,82.31
2018-04-04T03:02:27.645Z,82.23
2018-04-04T03:04:58.396Z,82.17
2018-04-04T03:07:29.133Z,82.70
2018-04-04T03:09:59.908Z,82.24
2018-04-04T03:12:30.636Z,82.02
2018-04-04T03:15:01.400Z,81.57
2018-04-04T03:17:32.141Z,80.90
2018-04-04T03:20:02.910Z,80.68
2018-04-04T03:22:33.648Z,80.50
2018-04-04T03:25:04.404Z,80.82
2018-04-04T03:27:35.137Z,81.05
2018-04-04T03:30:05.892Z,81.55
2018-04-04T03:32:36.632Z,82.03
2018-04-04T03:35:07.393Z,82.24
2018-04-04T03:37:38.134Z,82.70
2018-04-04T03:40:08.896Z,82.74
2018-04-04T03:42:39.633Z,82.98
2018-04-04T03:45:10.397Z,83.57
2018-04-04T03:47:41.137Z,83.92
2018-04-04T03:50:11.904Z,84.52
2018-04-04T03:52:42.657Z,84.81
2018-04-04T03:55:13.412Z,84.96
2018-04-04T03:57:44.152Z,85.25
2018-04-04T04:00:14.917Z,85.37
2018-04-04T04:02:45.649Z,85.24
2018-04-04T04:05:16.408Z,85.58
2018-04-04T04:07:47.200Z,86.01
2018-04-04T04:10:17.965Z,86.73
2018-04-04T04:12:48.792Z,87.13
2018-04-04T04:15:19.548Z,87.21
2018-04-04T04:17:50.292Z,87.40
2018-04-04T04:20:21.062Z,87.96
2018-04-04T04:22:51.792Z,88.02
2018-04-04T04:25:22.544Z,87.34
2018-04-04T04:27:53.281Z,87.18
2018-04-04T04:30:24.041Z,87.57
2018-04-04T04:32:54.777Z,87.56
2018-04-04T04:35:25.573Z,87.45
2018-04-04T04:37:56.317Z,87.45
2018-04-04T04:40:27.080Z,87.79
2018-04-04T04:42:57.812Z,87.68
2018-04-04T04:45:28.589Z,87.20
2018-04-04T04:47:59.318Z,86.74
2018-04-04T04:50:30.080Z,86.41
2018-04-04T04:53:00.828Z,86.32
2018-04-04T04:55:31.611Z,86.19
2018-04-04T04:58:02.349Z,85.94
2018-04-04T05:00:33.109Z,85.64
2018-04-04T05:03:03.853Z,85.20
2018-04-04T05:05:34.625Z,85.21
2018-04-04T05:08:05.377Z,85.38
2018-04-04T05:10:36.148Z,85.43
2018-04-04T05:13:06.888Z,85.50
2018-04-04T05:15:37.654Z,85.50
2018-04-04T05:18:08.389Z,85.54
2018-04-04T05:20:39.149Z,85.43
2018-04-04T05:23:09.892Z,85.26
2018-04-04T05:25:40.648Z,85.02
2018-04-04T05:28:11.382Z,84.35
2018-04-04T05:30:42.168Z,83.81
2018-04-04T05:33:13.003Z,83.26
2018-04-04T05:35:43.760Z,82.96
2018-04-04T05:38:14.560Z,82.74
2018-04-04T05:40:45.448Z,82.24
2018-04-04T05:43:16.189Z,81.54
2018-04-04T05:45:47.042Z,81.27
2018-04-04T05:48:17.732Z,81.03
2018-04-04T05:50:48.496Z,80.29
2018-04-04T05:53:19.229Z,79.55
2018-04-04T05:55:52.068Z,78.78
2018-04-04T05:58:22.889Z,78.04
2018-04-04T06:00:53.665Z,77.93
2018-04-04T06:03:24.404Z,77.30
2018-04-04T06:05:55.164Z,76.71
2018-04-04T06:08:25.925Z,76.48
2018-04-04T06:10:56.696Z,75.64
2018-04-04T06:13:27.500Z,75.51
2018-04-04T06:15:58.268Z,74.40
2018-04-04T06:18:28.996Z,74.41
2018-04-04T06:20:59.736Z,73.81
2018-04-04T06:23:30.481Z,73.59
2018-04-04T06:26:01.236Z,73.18
2018-04-04T06:28:31.972Z,73.50
2018-04-04T06:31:02.742Z,73.01
2018-04-04T06:33:33.476Z,72.07
2018-04-04T06:36:04.232Z,71.22
2018-04-04T06:38:34.965Z,70.13
2018-04-04T06:41:05.715Z,69.17
2018-04-04T06:43:36.460Z,68.83
2018-04-04T06:46:07.219Z,67.80
2018-04-04T06:48:37.960Z,65.62
2018-04-04T06:51:08.728Z,64.10
2018-04-04T06:53:39.473Z,63.55
2018-04-04T06:56:10.229Z,63.03
2018-04-04T06:58:40.968Z,62.52
2018-04-04T07:01:11.741Z,61.55
2018-04-04T07:03:42.485Z,61.43
2018-04-04T07:06:13.273Z,59.45
2018-04-04T07:08:44.085Z,57.33
2018-04-04T07:11:14.834Z,56.83
2018-04-04T07:13:45.584Z,55.43
2018-04-04T07:16:16.341Z,54.46
2018-04-04T07:18:47.101Z,55.85
2018-04-04T07:21:17.861Z,55.56
2018-04-04T07:23:48.616Z,56.41
2018-04-04T07:26:19.373Z,56.85
2018-04-04T07:28:50.125Z,57.78
2018-04-04T07:31:20.905Z,58.75
2018-04-04T07:33:51.653Z,58.43
2018-04-04T07:36:22.425Z,57.60
2018-04-04T07:38:53.172Z,56.65
2018-04-04T07:41:23.936Z,54.81
2018-04-04T07:43:54.676Z,54.37
2018-04-04T07:46:26.519Z,53.72
2018-04-04T07:48:59.285Z,50.83
2018-04-04T07:51:30.068Z,48.10
2018-04-04T07:54:00.848Z,47.75
2018-04-04T07:56:31.585Z,46.98
2018-04-04T07:59:04.352Z,46.62
2018-04-04T08:01:35.133Z,46.59
2018-04-04T08:04:05.897Z,45.95
2018-04-04T08:06:36.673Z,48.12
2018-04-04T08:09:07.469Z,47.42
2018-04-04T08:11:38.244Z,48.31
2018-04-04T08:14:09.023Z,47.94
2018-04-04T08:16:39.772Z,48.41
2018-04-04T08:19:10.509Z,48.32
2018-04-04T08:21:41.276Z,47.53
2018-04-04T08:24:12.029Z,47.42
2018-04-04T08:26:43.782Z,46.92
2018-04-04T08:29:15.637Z,46.00
2018-04-04T08:31:48.424Z,48.45
2018-04-04T08:34:19.241Z,47.09
2018-04-04T08:36:49.945Z,47.64
2018-04-04T08:39:20.725Z,48.68
2018-04-04T08:41:51.481Z,48.05
2018-04-04T08:44:22.210Z,48.42
2018-04-04T08:46:52.973Z,50.05
2018-04-04T08:49:23.708Z,50.96
2018-04-04T08:51:54.456Z,48.89
2018-04-04T08:54:25.226Z,48.25
2018-04-04T08:56:55.996Z,47.96
2018-04-04T08:59:26.786Z,48.24
2018-04-04T09:01:57.571Z,48.30
2018-04-04T09:04:28.355Z,47.69
2018-04-04T09:06:59.151Z,46.56
2018-04-04T09:09:29.948Z,45.24
2018-04-04T09:12:00.752Z,44.68
2018-04-04T09:17:26.747Z,42.48
2018-04-04T09:19:57.534Z,42.41
2018-04-04T09:22:28.378Z,42.76
2018-04-04T09:24:59.171Z,40.92
2018-04-04T09:27:29.978Z,40.02
2018-04-04T09:30:00.754Z,40.03
2018-04-04T09:32:31.551Z,39.90
2018-04-04T09:35:02.342Z,39.58
2018-04-04T09:37:33.134Z,38.82
2018-04-04T09:40:03.915Z,39.97
2018-04-04T09:42:34.698Z,39.70
2018-04-04T09:45:05.494Z,39.96
2018-04-04T09:47:36.282Z,40.13
2018-04-04T09:50:07.054Z,39.73
2018-04-04T09:52:37.846Z,40.86
2018-04-04T09:55:08.618Z,38.17
2018-04-04T09:57:39.415Z,37.89
2018-04-04T10:00:10.251Z,36.98
2018-04-04T10:02:41.085Z,36.30
2018-04-04T10:05:11.851Z,36.82
2018-04-04T10:07:42.651Z,36.99
2018-04-04T10:10:13.427Z,37.52
2018-04-04T10:12:59.199Z,36.33
2018-04-04T10:15:29.986Z,35.36
2018-04-04T10:18:00.791Z,34.45
2018-04-04T10:20:31.562Z,34.65
2018-04-04T10:23:02.362Z,35.90
2018-04-04T10:25:33.142Z,36.82
2018-04-04T10:28:03.935Z,36.05
2018-04-04T10:30:34.710Z,35.36
2018-04-04T10:33:05.507Z,35.52
2018-04-04T10:35:36.283Z,34.78
2018-04-04T10:38:07.090Z,35.37
2018-04-04T10:40:37.858Z,35.76
2018-04-04T10:43:08.675Z,35.40
2018-04-04T10:45:39.451Z,35.47
2018-04-04T10:48:10.248Z,35.47
2018-04-04T10:50:41.038Z,35.06
2018-04-04T10:53:11.834Z,35.29
2018-04-04T10:55:42.635Z,34.22
2018-04-04T10:58:13.439Z,33.50
2018-04-04T11:00:44.214Z,34.02
2018-04-04T11:03:15.082Z,33.00
2018-04-04T11:05:45.859Z,34.43
2018-04-04T11:08:16.669Z,34.21
2018-04-04T11:10:47.442Z,34.40
2018-04-04T11:13:18.227Z,35.29
2018-04-04T11:15:49.006Z,35.41
2018-04-04T11:18:19.812Z,33.73
2018-04-04T11:20:50.593Z,33.79
2018-04-04T11:23:21.394Z,33.49
2018-04-04T11:25:52.190Z,35.02
2018-04-04T11:28:22.971Z,35.35
2018-04-04T11:30:53.788Z,35.64
2018-04-04T11:33:24.596Z,33.87
2018-04-04T11:35:55.368Z,33.09
2018-04-04T11:38:26.222Z,32.63
2018-04-04T11:40:57.011Z,32.77
2018-04-04T11:43:27.799Z,32.62
2018-04-04T11:45:58.596Z,32.35
2018-04-04T11:48:29.402Z,32.04
2018-04-04T11:51:00.170Z,33.33
2018-04-04T11:53:30.954Z,33.76
2018-04-04T11:56:01.829Z,33.88
2018-04-04T11:58:32.636Z,32.98
2018-04-04T12:01:03.424Z,32.61
2018-04-04T12:03:34.235Z,32.65
2018-04-04T12:06:05.008Z,34.18
2018-04-04T12:08:35.795Z,33.59
2018-04-04T12:11:06.584Z,34.97
2018-04-04T12:13:37.384Z,34.65
2018-04-04T12:16:08.187Z,34.65
2018-04-04T12:18:39.003Z,33.93
2018-04-04T12:21:09.796Z,33.46
2018-04-04T12:23:40.589Z,33.15
2018-04-04T12:26:11.388Z,33.74
2018-04-04T12:28:42.182Z,33.48
2018-04-04T12:31:12.967Z,32.88
2018-04-04T12:33:43.763Z,32.34
2018-04-04T12:36:14.548Z,31.97
2018-04-04T12:38:45.360Z,32.19
2018-04-04T12:41:16.149Z,32.34
2018-04-04T12:43:46.968Z,33.07
2018-04-04T12:46:17.728Z,32.72
2018-04-04T12:48:48.532Z,32.93
2018-04-04T12:51:19.328Z,32.13
2018-04-04T12:53:50.124Z,31.43
2018-04-04T12:56:20.924Z,31.20
2018-04-04T12:58:51.721Z,30.98
2018-04-04T13:01:22.509Z,30.29
2018-04-04T13:03:53.299Z,28.91
2018-04-04T13:06:24.093Z,31.34
2018-04-04T13:08:54.921Z,28.91
2018-04-04T13:11:25.696Z,26.95
2018-04-04T13:13:56.497Z,26.97
2018-04-04T13:16:39.596Z,26.03
2018-04-04T13:19:10.399Z,25.21
2018-04-04T13:21:41.200Z,25.21
2018-04-04T13:24:12.021Z,25.80
2018-04-04T13:26:42.801Z,24.02
2018-04-04T13:29:13.612Z,23.32
2018-04-04T13:31:44.392Z,23.65
2018-04-04T13:34:15.207Z,23.08
2018-04-04T13:36:45.997Z,22.26
2018-04-04T13:39:16.806Z,22.29
2018-04-04T13:41:47.580Z,23.14
2018-04-04T13:44:18.363Z,22.38
2018-04-04T13:46:49.152Z,23.07
2018-04-04T13:49:19.966Z,22.55
2018-04-04T13:51:50.748Z,22.46
2018-04-04T13:54:21.560Z,22.22
2018-04-04T13:56:52.343Z,23.99
2018-04-04T13:59:23.146Z,24.25
2018-04-04T14:01:53.932Z,23.58
2018-04-04T14:04:24.732Z,24.09
2018-04-04T14:06:55.525Z,25.12
2018-04-04T14:09:26.311Z,24.38
2018-04-04T14:11:57.089Z,23.34
2018-04-04T14:14:27.871Z,23.95
2018-04-04T14:16:58.652Z,22.98
2018-04-04T14:19:29.435Z,22.60
2018-04-04T14:22:00.215Z,23.38
2018-04-04T14:24:31.014Z,23.54
2018-04-04T14:27:01.816Z,23.17
2018-04-04T14:29:32.627Z,22.89
2018-04-04T14:32:03.445Z,23.08
2018-04-04T14:34:34.244Z,24.12
2018-04-04T14:37:05.051Z,24.55
2018-04-04T14:39:35.870Z,24.28
2018-04-04T14:42:06.645Z,25.87
2018-04-04T14:44:37.402Z,25.27
2018-04-04T14:47:08.171Z,23.79
2018-04-04T14:49:38.937Z,23.65
2018-04-04T14:52:09.694Z,23.75
2018-04-04T14:54:40.489Z,23.74
2018-04-04T14:57:11.246Z,22.16
2018-04-04T14:59:42.005Z,22.59
2018-04-04T15:02:12.750Z,23.28
2018-04-04T15:04:43.521Z,23.46
2018-04-04T15:07:14.282Z,21.52
2018-04-04T15:09:45.037Z,20.49
2018-04-04T15:12:15.785Z,22.27
2018-04-04T15:14:46.565Z,23.12
2018-04-04T15:17:17.328Z,22.79
2018-04-04T15:19:48.113Z,23.53
2018-04-04T15:35:55.373Z,23.09
2018-04-04T15:38:26.206Z,25.03
2018-04-04T15:40:57.023Z,25.39
2018-04-04T15:43:27.869Z,25.93
2018-04-04T15:45:58.698Z,26.36
2018-04-04T15:48:29.498Z,27.01
2018-04-04T15:51:00.334Z,27.06
2018-04-04T15:53:31.212Z,27.63
2018-04-04T15:56:02.124Z,28.23
2018-04-04T15:58:32.986Z,28.45
2018-04-04T16:01:03.836Z,28.25
2018-04-04T16:03:34.651Z,28.55
2018-04-04T16:06:05.561Z,29.17
2018-04-04T16:08:36.373Z,30.23
2018-04-04T16:11:07.160Z,30.39
2018-04-04T16:13:37.976Z,30.79
2018-04-04T16:16:08.802Z,31.04
2018-04-04T16:18:39.698Z,31.51
2018-04-04T16:21:10.464Z,31.84
2018-04-04T16:23:41.277Z,32.20
2018-04-04T16:26:12.126Z,31.51
2018-04-04T16:28:42.965Z,32.18
2018-04-04T16:31:13.818Z,32.25
2018-04-04T16:33:44.651Z,32.38
2018-04-04T16:36:15.473Z,32.57
2018-04-04T16:38:46.296Z,33.06
2018-04-04T16:41:17.137Z,33.74
2018-04-04T16:43:47.961Z,33.59
2018-04-04T16:46:18.764Z,34.71
2018-04-04T16:48:49.549Z,34.21
2018-04-04T16:51:20.392Z,33.73
2018-04-04T16:53:51.211Z,35.29
2018-04-04T16:56:23.101Z,40.14
2018-04-04T16:58:53.947Z,47.42
2018-04-04T17:01:24.746Z,48.17
2018-04-04T17:03:55.554Z,51.72
2018-04-04T17:06:26.525Z,55.96
2018-04-04T17:08:57.353Z,62.02
2018-04-04T17:11:28.225Z,60.86
2018-04-04T17:13:59.756Z,63.71
2018-04-04T17:16:30.622Z,68.83
2018-04-04T17:19:01.447Z,73.23
2018-04-04T17:21:32.317Z,74.30
2018-04-04T17:24:03.226Z,76.82
2018-04-04T17:26:34.040Z,78.30
2018-04-04T17:29:04.860Z,78.86
2018-04-04T17:31:35.769Z,78.83
2018-04-04T17:34:06.617Z,79.60
2018-04-04T17:36:37.429Z,78.29
2018-04-04T17:39:08.246Z,79.21
2018-04-04T17:41:39.077Z,80.58
2018-04-04T17:44:09.889Z,80.96
2018-04-04T17:46:41.348Z,80.06
2018-04-04T17:49:12.182Z,81.02
2018-04-04T17:51:43.069Z,79.17
2018-04-04T17:54:13.938Z,79.83
2018-04-04T17:56:44.797Z,77.28
2018-04-04T17:59:15.697Z,77.46
2018-04-04T18:01:46.587Z,78.65
2018-04-04T18:04:17.428Z,77.44
2018-04-04T18:06:48.261Z,79.95
2018-04-04T18:09:19.176Z,80.04
2018-04-04T18:11:49.999Z,81.27
2018-04-04T18:14:20.871Z,80.96
2018-04-04T18:16:51.708Z,80.77
2018-04-04T18:19:22.571Z,80.11
2018-04-04T18:21:53.426Z,78.90
2018-04-04T18:24:24.265Z,78.95
2018-04-04T18:26:55.374Z,78.46
2018-04-04T18:29:27.185Z,77.99
2018-04-04T18:31:58.021Z,77.66
2018-04-04T18:34:28.857Z,77.42
2018-04-04T18:36:59.820Z,77.68
2018-04-04T18:39:30.672Z,78.16
2018-04-04T18:42:01.654Z,76.91
2018-04-04T18:44:32.466Z,77.89
2018-04-04T18:47:03.365Z,78.34
2018-04-04T18:49:34.230Z,77.37
2018-04-04T18:52:07.166Z,78.35
2018-04-04T18:54:38.018Z,77.38
2018-04-04T18:57:08.867Z,76.94
2018-04-04T18:59:39.703Z,76.81
2018-04-04T19:02:10.554Z,76.23
2018-04-04T19:04:41.352Z,77.07
2018-04-04T19:07:12.205Z,76.46
2018-04-04T19:09:43.018Z,77.50
2018-04-04T19:12:13.899Z,79.01
2018-04-04T19:14:44.769Z,79.21
2018-04-04T19:17:15.529Z,81.68
2018-04-04T19:19:46.367Z,80.80
2018-04-04T19:22:17.205Z,80.72
2018-04-04T19:24:47.998Z,81.65
2018-04-04T19:27:18.830Z,81.42
2018-04-04T19:29:49.670Z,81.18
2018-04-04T19:32:20.546Z,81.83
2018-04-04T19:34:51.383Z,78.91
2018-04-04T19:37:22.245Z,77.89
2018-04-04T19:39:53.102Z,75.32
2018-04-04T19:42:23.978Z,74.15
2018-04-04T19:44:54.857Z,75.41
2018-04-04T19:47:25.670Z,75.08
2018-04-04T19:49:56.535Z,75.17
2018-04-04T19:52:28.349Z,76.06
2018-04-04T19:54:59.205Z,76.55
2018-04-04T19:57:30.051Z,77.38
2018-04-04T20:00:00.964Z,79.02
2018-04-04T20:02:31.863Z,80.47
2018-04-04T20:05:02.703Z,79.75
2018-04-04T20:07:33.530Z,80.64
2018-04-04T20:10:04.388Z,80.70
2018-04-04T20:12:35.257Z,80.39
2018-04-04T20:15:06.127Z,79.70
2018-04-04T20:17:36.994Z,79.60
2018-04-04T20:20:07.872Z,78.94
2018-04-04T20:22:38.777Z,78.13
2018-04-04T20:25:09.671Z,77.64
2018-04-04T20:27:40.552Z,78.66
2018-04-04T20:30:11.398Z,79.98
2018-04-04T20:32:42.258Z,80.70
2018-04-04T20:35:13.149Z,81.10
2018-04-04T20:37:44.032Z,81.15
2018-04-04T20:40:15.792Z,80.60
2018-04-04T20:42:46.621Z,79.90
2018-04-04T20:45:17.479Z,80.03
2018-04-04T20:47:48.357Z,79.77
2018-04-04T20:50:21.875Z,76.33
2018-04-04T20:52:52.884Z,75.07
2018-04-04T20:55:23.730Z,74.55
2018-04-04T20:57:54.614Z,74.98
2018-04-04T21:00:25.437Z,73.67
2018-04-04T21:02:56.294Z,71.92
2018-04-04T21:05:27.131Z,71.63
2018-04-04T21:07:57.983Z,71.17
2018-04-04T21:10:28.847Z,70.68
2018-04-04T21:12:59.761Z,70.67
2018-04-04T21:15:30.602Z,70.51
2018-04-04T21:18:01.476Z,69.49
2018-04-04T21:20:32.324Z,70.07
2018-04-04T21:23:03.157Z,70.02
2018-04-04T21:25:34.001Z,68.92
2018-04-04T21:28:04.846Z,68.68
2018-04-04T21:30:35.682Z,67.96
2018-04-04T21:33:06.502Z,68.16
2018-04-04T21:35:37.314Z,68.03
2018-04-04T21:38:08.150Z,69.21
2018-04-04T21:40:38.967Z,68.41
2018-04-04T21:43:09.790Z,68.26
2018-04-04T21:45:40.603Z,67.96
2018-04-04T21:48:11.435Z,68.49
2018-04-04T21:50:42.254Z,69.07
2018-04-04T21:53:13.059Z,69.05
2018-04-04T21:55:43.900Z,69.72
2018-04-04T21:58:14.738Z,70.11
2018-04-04T22:00:45.570Z,70.51
2018-04-04T22:03:16.376Z,70.64
2018-04-04T22:05:47.166Z,70.41
2018-04-04T22:08:17.999Z,70.76
2018-04-04T22:10:48.935Z,70.27
2018-04-04T22:13:19.763Z,70.05
2018-04-04T22:15:50.572Z,70.17
2018-04-04T22:18:21.389Z,70.30
2018-04-04T22:20:52.202Z,70.54
2018-04-04T22:23:23.003Z,69.89
2018-04-04T22:25:53.836Z,70.39
2018-04-04T22:28:24.720Z,71.05
2018-04-04T22:30:55.556Z,71.21
2018-04-04T22:33:26.463Z,70.78
2018-04-04T22:35:59.993Z,71.40
2018-04-04T22:38:30.900Z,72.38
2018-04-04T22:41:01.767Z,72.67
2018-04-04T22:43:32.674Z,73.03
2018-04-04T22:46:03.595Z,72.90
2018-04-04T22:48:34.451Z,72.66
2018-04-04T22:51:05.246Z,72.54
2018-04-04T22:53:36.106Z,72.66
2018-04-04T22:56:07.009Z,72.84
2018-04-04T22:58:37.888Z,73.18
2018-04-04T23:01:08.763Z,73.81
2018-04-04T23:03:39.700Z,73.14
2018-04-04T23:06:10.584Z,73.12
2018-04-04T23:08:41.480Z,74.16
2018-04-04T23:11:12.411Z,74.58
2018-04-04T23:13:43.280Z,74.81
2018-04-04T23:16:14.116Z,74.30
2018-04-04T23:18:44.998Z,73.59
2018-04-04T23:21:15.871Z,73.78
2018-04-04T23:23:46.731Z,73.48
2018-04-04T23:26:17.563Z,73.72
2018-04-04T23:28:48.448Z,74.32
2018-04-04T23:31:19.317Z,74.80
2018-04-04T23:33:50.219Z,75.38
2018-04-04T23:36:21.099Z,75.44
2018-04-04T23:38:51.954Z,75.06
2018-04-04T23:41:22.903Z,74.79
2018-04-04T23:43:53.790Z,75.05
2018-04-04T23:46:24.657Z,75.81
2018-04-04T23:48:55.547Z,75.87
2018-04-04T23:51:26.411Z,75.74
2018-04-04T23:53:57.312Z,75.29
2018-04-04T23:56:28.261Z,75.12
2018-04-04T23:58:59.761Z,75.14
